Royalton, Wisconsin
Current Conditions -  °F | °C
As of 3:55 AM on Monday 22 Dec 2014 (Local Time) from KPCZ Reporting Station
Overcast Overcast  
Wind Chill: 29°   Ceiling: 1800
Heat Index: 36°   Visibility: 7mi
Dew Point: 31°   Wind: 8mph
Humidity: 82%   Direction: 140°SE
Pressure: 29.9"   Gusts: NA
Location:  44.41°N, 88.86°W
Report Text: KPCZ 220955Z AUTO 14007KT 7SM OVC018 02/M01 A2990 RMK AO2 T00211006
Loading
Personal Weather Stations






























Interactive Weather Map New forecast layout! Learn more

10-Day Weather Forecast

Advertisements
Track Severe Weather on mobile